Drake Field Fayetteville US
ICAO: KFYV
IATA: FYV
Category: Medium
Scheduled Services: No

Elevation: 1251 ft
TransAlt. 18000 ft.

Airport Communications:
RAZORBACK APP/DEP:121
ATIS:133.1
CTAF:128
GND:121.8
JONESBORO RDO:122.3
TWR:128
UNICOM:122.95

KFYV Zoom In..

If Map Doesn't Load, Click Here

Runways:

(A) RW 16 length 6005 ft width 100 ft
LOC 111.90 / hdg 164

(B) RW 34 length 6005 ft width 100 ft
LOC 111.90 / hdg 344

Location; KFYV
Day. 21 / Time. 12.53 Zulu
* Altimeter: 30.08
* Temperature: 23° c. 73.4°f.
* Wind from: VRB° Speed 05 kn.
Dewpoint: 20° c.
Visibility: 10 Statute Miles.
Clouds: Few 2500 ft.
Clouds: Few 12000 ft.

KFYV 211253Z VRB05KT 10SM FEW025 FEW120 23/20 A3008 RMK AO2 SLP170 T02330200


Wind From VRB°
Speed 05 kn.

 
 
jpsmedia.com for Web Design worldairports.se 2018   terms of use